createdAt,value
2016-11-13T00:02:59.209Z,90.91
2016-11-13T00:07:55.989Z,90.25
2016-11-13T00:12:52.530Z,90.44
2016-11-13T00:17:48.866Z,90.82
2016-11-13T00:22:46.068Z,90.82
2016-11-13T00:27:42.487Z,90.82
2016-11-13T00:32:38.849Z,90.91
2016-11-13T00:37:35.027Z,90.63
2016-11-13T00:42:31.648Z,91.39
2016-11-13T00:47:27.825Z,91.39
2016-11-13T00:52:24.458Z,92.05
2016-11-13T00:57:20.647Z,92.14
2016-11-13T01:02:17.044Z,91.58
2016-11-13T01:07:14.267Z,92.14
2016-11-13T01:12:10.627Z,91.77
2016-11-13T01:17:07.220Z,92.33
2016-11-13T01:22:03.507Z,92.24
2016-11-13T01:26:59.843Z,91.86
2016-11-13T01:31:56.104Z,92.52
2016-11-13T01:36:52.528Z,91.48
2016-11-13T01:41:49.121Z,91.77
2016-11-13T01:46:45.767Z,91.29
2016-11-13T01:51:42.021Z,90.63
2016-11-13T01:56:38.211Z,90.72
2016-11-13T02:01:37.039Z,90.44
2016-11-13T02:06:32.799Z,90.53
2016-11-13T02:11:29.338Z,89.97
2016-11-13T02:16:25.678Z,89.21
2016-11-13T02:21:22.918Z,89.31
2016-11-13T02:26:18.861Z,89.12
2016-11-13T02:31:16.009Z,88.36
2016-11-13T02:36:14.897Z,89.73
2016-11-13T02:41:10.570Z,89.31
2016-11-13T02:46:06.815Z,89.31
2016-11-13T02:51:04.135Z,89.78
2016-11-13T02:56:00.603Z,88.64
2016-11-13T03:00:57.053Z,88.83
2016-11-13T03:05:53.535Z,88.45
2016-11-13T03:10:49.952Z,88.07
2016-11-13T03:15:46.331Z,88.74
2016-11-13T03:20:42.650Z,88.93
2016-11-13T03:25:39.053Z,88.74
2016-11-13T03:30:35.280Z,88.45
2016-11-13T03:35:31.709Z,90.25
2016-11-13T03:40:28.070Z,89.31
2016-11-13T03:45:24.568Z,89.50
2016-11-13T03:50:21.269Z,89.50
2016-11-13T03:55:17.446Z,88.93
2016-11-13T04:00:13.849Z,89.21
2016-11-13T04:05:10.004Z,89.50
2016-11-13T04:10:07.468Z,89.40
2016-11-13T04:15:03.727Z,89.50
2016-11-13T04:20:00.247Z,89.87
2016-11-13T04:24:56.469Z,90.06
2016-11-13T04:29:52.625Z,90.06
2016-11-13T04:34:48.831Z,90.25
2016-11-13T04:39:45.326Z,90.91
2016-11-13T04:44:41.785Z,90.63
2016-11-13T04:49:37.943Z,90.34
2016-11-13T04:54:34.264Z,90.63
2016-11-13T04:59:30.684Z,90.63
2016-11-13T05:04:27.579Z,90.91
2016-11-13T05:09:23.942Z,91.48
2016-11-13T05:14:20.441Z,91.10
2016-11-13T05:19:16.676Z,91.39
2016-11-13T05:24:12.941Z,91.01
2016-11-13T05:29:09.422Z,91.48
2016-11-13T05:34:05.901Z,92.24
2016-11-13T05:39:02.723Z,91.96
2016-11-13T05:43:58.608Z,92.14
2016-11-13T05:48:55.299Z,91.77
2016-11-13T05:53:52.099Z,91.86
2016-11-13T05:58:48.940Z,91.58
2016-11-13T06:03:45.099Z,91.96
2016-11-13T06:08:41.316Z,91.96
2016-11-13T06:13:37.697Z,92.61
2016-11-13T06:18:34.317Z,92.24
2016-11-13T06:23:32.464Z,91.96
2016-11-13T06:28:28.507Z,92.99
2016-11-13T06:33:25.263Z,91.77
2016-11-13T06:38:23.454Z,91.96
2016-11-13T06:43:19.934Z,93.47
2016-11-13T06:48:16.233Z,92.14
2016-11-13T06:53:12.832Z,92.71
2016-11-13T06:58:09.713Z,92.14
2016-11-13T07:03:06.009Z,92.33
2016-11-13T07:08:02.670Z,91.96
2016-11-13T07:13:00.370Z,91.86
2016-11-13T07:17:56.330Z,91.39
2016-11-13T07:22:54.133Z,91.77
2016-11-13T07:27:50.173Z,91.67
2016-11-13T07:32:46.730Z,91.39
2016-11-13T07:37:43.148Z,91.20
2016-11-13T07:42:39.596Z,91.48
2016-11-13T07:47:35.941Z,91.58
2016-11-13T07:52:32.665Z,90.72
2016-11-13T07:57:28.954Z,90.82
2016-11-13T08:02:25.264Z,90.25
2016-11-13T08:07:21.889Z,91.01
2016-11-13T08:12:18.360Z,90.67
2016-11-13T08:17:14.739Z,89.82
2016-11-13T08:22:12.131Z,89.92
2016-11-13T08:27:08.336Z,90.11
2016-11-13T08:32:05.559Z,89.35
2016-11-13T08:37:01.738Z,88.59
2016-11-13T08:41:58.196Z,88.12
2016-11-13T08:46:55.177Z,87.46
2016-11-13T08:51:51.096Z,87.02
2016-11-13T08:56:50.350Z,88.31
2016-11-13T09:01:46.116Z,87.17
2016-11-13T09:06:42.564Z,87.31
2016-11-13T09:11:39.613Z,86.83
2016-11-13T09:16:37.753Z,85.70
2016-11-13T09:21:33.676Z,85.80
2016-11-13T09:26:30.176Z,85.70
2016-11-13T09:31:26.724Z,86.08
2016-11-13T09:36:22.991Z,85.32
2016-11-13T09:41:20.950Z,84.75
2016-11-13T09:46:17.570Z,83.66
2016-11-13T09:51:14.729Z,82.71
2016-11-13T09:56:11.238Z,82.24
2016-11-13T10:01:07.746Z,82.62
2016-11-13T10:06:03.945Z,82.71
2016-11-13T10:11:00.396Z,82.71
2016-11-13T10:15:56.689Z,83.09
2016-11-13T10:20:53.004Z,83.75
2016-11-13T10:25:49.684Z,82.71
2016-11-13T10:30:45.680Z,83.37
2016-11-13T10:35:42.132Z,83.66
2016-11-13T10:40:38.948Z,82.05
2016-11-13T10:45:36.327Z,80.38
2016-11-13T10:50:33.347Z,80.95
2016-11-13T10:55:30.039Z,80.10
2016-11-13T11:00:26.474Z,80.86
2016-11-13T11:05:24.013Z,80.67
2016-11-13T11:10:20.144Z,80.48
2016-11-13T11:15:16.365Z,79.53
2016-11-13T11:20:12.670Z,79.82
2016-11-13T11:25:09.187Z,79.53
2016-11-13T11:30:05.557Z,79.53
2016-11-13T11:35:02.139Z,80.29
2016-11-13T11:39:58.613Z,79.53
2016-11-13T11:44:54.927Z,80.29
2016-11-13T11:49:51.988Z,80.57
2016-11-13T11:54:48.439Z,79.25
2016-11-13T11:59:44.999Z,79.38
2016-11-13T12:04:41.407Z,78.34
2016-11-13T12:09:39.200Z,78.11
2016-11-13T12:14:35.074Z,78.72
2016-11-13T12:19:32.818Z,77.86
2016-11-13T12:24:28.846Z,78.72
2016-11-13T12:29:26.953Z,78.05
2016-11-13T12:34:22.640Z,79.38
2016-11-13T12:39:19.121Z,79.28
2016-11-13T12:44:15.361Z,79.76
2016-11-13T12:49:11.595Z,79.76
2016-11-13T12:54:08.077Z,79.38
2016-11-13T12:59:04.417Z,78.91
2016-11-13T13:04:00.740Z,78.91
2016-11-13T13:08:57.915Z,80.43
2016-11-13T13:13:54.409Z,80.24
2016-11-13T13:18:50.969Z,79.66
2016-11-13T13:23:46.875Z,80.14
2016-11-13T13:28:43.652Z,81.66
2016-11-13T13:33:40.993Z,81.66
2016-11-13T13:38:36.890Z,81.37
2016-11-13T13:43:33.238Z,81.75
2016-11-13T13:48:29.580Z,82.32
2016-11-13T13:53:25.639Z,81.24
2016-11-13T13:58:22.094Z,82.09
2016-11-13T14:03:18.501Z,82.75
2016-11-13T14:08:17.213Z,83.04
2016-11-13T14:13:12.656Z,83.23
2016-11-13T14:18:10.306Z,83.23
2016-11-13T14:23:07.379Z,83.42
2016-11-13T14:28:03.452Z,83.61
2016-11-13T14:32:59.388Z,84.65
2016-11-13T14:37:56.353Z,85.03
2016-11-13T14:42:52.785Z,85.93
2016-11-13T14:47:49.138Z,86.60
2016-11-13T14:52:45.642Z,87.16
2016-11-13T14:57:41.878Z,87.83
2016-11-13T15:02:38.112Z,88.30
2016-11-13T15:07:35.087Z,88.59
2016-11-13T15:12:31.126Z,89.91
2016-11-13T15:17:27.481Z,89.58
2016-11-13T15:22:24.340Z,89.58
2016-11-13T15:27:20.791Z,89.87
2016-11-13T15:32:16.912Z,90.72
2016-11-13T15:37:13.011Z,90.15
2016-11-13T15:42:09.360Z,91.00
2016-11-13T15:47:06.749Z,91.00
2016-11-13T15:52:03.384Z,91.19
2016-11-13T15:56:59.660Z,92.38
2016-11-13T16:01:55.981Z,93.04
2016-11-13T16:06:53.360Z,93.80
2016-11-13T16:11:49.421Z,94.08
2016-11-13T16:16:46.619Z,94.56
2016-11-13T16:21:43.368Z,94.65
2016-11-13T16:26:41.259Z,94.84
2016-11-13T16:31:37.440Z,94.27
2016-11-13T16:36:34.479Z,94.13
2016-11-13T16:41:31.784Z,94.18
2016-11-13T16:46:27.909Z,95.17
2016-11-13T16:51:24.217Z,95.17
2016-11-13T16:56:20.597Z,95.36
2016-11-13T17:01:16.993Z,94.70
2016-11-13T17:06:13.377Z,95.17
2016-11-13T17:11:10.795Z,94.70
2016-11-13T17:16:07.486Z,95.17
2016-11-13T17:21:03.895Z,95.26
2016-11-13T17:26:00.013Z,95.26
2016-11-13T17:30:56.396Z,95.93
2016-11-13T17:35:54.560Z,96.21
2016-11-13T17:40:53.376Z,96.02
2016-11-13T17:45:48.874Z,96.12
2016-11-13T17:50:45.151Z,96.31
2016-11-13T17:55:41.520Z,96.92
2016-11-13T18:00:37.768Z,96.87
2016-11-13T18:05:34.309Z,96.45
2016-11-13T18:10:31.209Z,97.30
2016-11-13T18:15:27.155Z,97.30
2016-11-13T18:20:23.366Z,97.58
2016-11-13T18:25:19.705Z,97.30
2016-11-13T18:30:16.218Z,96.45
2016-11-13T18:35:12.482Z,96.35
2016-11-13T18:40:08.815Z,97.67
2016-11-13T18:45:05.122Z,97.86
2016-11-13T18:50:01.450Z,98.62
2016-11-13T18:54:57.657Z,98.52
2016-11-13T18:59:54.075Z,98.52
2016-11-13T19:04:50.341Z,98.05
2016-11-13T19:09:47.055Z,99.00
2016-11-13T19:14:43.597Z,99.19
2016-11-13T19:19:42.422Z,99.61
2016-11-13T19:24:38.914Z,99.99
2016-11-13T19:29:36.955Z,99.00
2016-11-13T19:34:32.859Z,99.38
2016-11-13T19:39:29.141Z,99.42
2016-11-13T19:44:25.850Z,99.61
2016-11-13T19:49:22.067Z,99.71
2016-11-13T19:54:18.512Z,99.99
2016-11-13T19:59:14.619Z,99.99
2016-11-13T20:04:11.118Z,99.99
2016-11-13T20:09:07.622Z,99.89
2016-11-13T20:14:04.192Z,99.99
2016-11-13T20:19:00.634Z,99.99
2016-11-13T20:23:56.896Z,99.99
2016-11-13T20:28:53.205Z,99.99
2016-11-13T20:33:49.484Z,99.99
2016-11-13T20:38:45.752Z,99.99
2016-11-13T20:43:42.127Z,99.23
2016-11-13T20:48:38.467Z,99.42
2016-11-13T20:53:34.922Z,99.42
2016-11-13T20:58:31.230Z,99.52
2016-11-13T21:03:27.808Z,99.99
2016-11-13T21:08:24.055Z,99.99
2016-11-13T21:13:20.239Z,99.99
2016-11-13T21:18:16.381Z,99.99
2016-11-13T21:23:12.910Z,99.99
2016-11-13T21:28:09.052Z,99.99
2016-11-13T21:33:05.119Z,99.99
2016-11-13T21:38:01.261Z,99.99
2016-11-13T21:42:57.577Z,99.99
2016-11-13T21:47:53.779Z,99.99
2016-11-13T21:52:50.042Z,99.99
2016-11-13T21:57:47.024Z,99.99
2016-11-13T22:02:42.973Z,99.99
2016-11-13T22:07:39.294Z,99.99
2016-11-13T22:12:35.753Z,99.99
2016-11-13T22:17:32.842Z,99.99
2016-11-13T22:22:29.132Z,99.99
2016-11-13T22:27:25.515Z,99.99
2016-11-13T22:32:22.505Z,99.99
2016-11-13T22:37:18.777Z,99.99
2016-11-13T22:42:15.066Z,99.99
2016-11-13T22:47:11.257Z,99.99
2016-11-13T22:52:08.378Z,99.99
2016-11-13T22:57:04.725Z,99.99
2016-11-13T23:02:00.912Z,99.99
2016-11-13T23:06:57.217Z,99.99
2016-11-13T23:11:53.759Z,99.99
2016-11-13T23:16:50.077Z,99.99
2016-11-13T23:21:46.524Z,99.99
2016-11-13T23:26:42.622Z,99.99
2016-11-13T23:31:38.900Z,99.99
2016-11-13T23:36:35.436Z,99.99
2016-11-13T23:41:31.618Z,99.99
2016-11-13T23:46:28.921Z,99.99
2016-11-13T23:51:24.955Z,99.99
2016-11-13T23:56:21.362Z,99.99
